Tupper Lake, NY (12986)

5:20 PM EDT on July 01, 2015 (GMT -0400)
The Wild Center | | Change Station
CLOSE
Current Station
Personal Weather Station
Location: Tupper Lake, NY
Elevation: 1640 ft
Nearby Weather Stations

Elev 1640 ft 44.22 °N, 74.44 °W | Updated 12 seconds ago

Overcast
Overcast
64.7 °F
Feels Like 64.7 °F
N
1.0
Wind Variable Wind from ENE
Gusts 17.0 mph

Today
High -- | Low -- °F
--% Chance of Precip.
Yesterday
High -- | Low -- °F
Precip. -- in
5:17 AM 8:45 PM
Full, 100% visible
Pressure 29.66 in
Visibility 10.0 miles
Clouds Few 2200 ft
Scattered Clouds 3400 ft
Overcast 6000 ft
Dew Point 59 °F
Humidity 83%
Rainfall 0.13 in
Snow Depth Not available.
UV 2 out of 12
Pollen .70 out of 12
Air Quality Not available.
Flu Activity Not available.
METAR KSLK 012051Z AUTO 26010G23KT 230V300 10SM FEW022 SCT034 OVC060 19/14 A2968 RMK AO2 LTG DSNT S SLP043 T01890144 55000 $

More Conditions Fewer Conditions

Pressure 29.66 in
Visibility 10.0 miles
Clouds Few 2200 ft
Scattered Clouds 3400 ft
Overcast 6000 ft
Dew Point 59 °F
Humidity 83%
Rainfall 0.13 in
Snow Depth Not available.
UV 2 out of 12
Pollen .70 out of 12
Air Quality Not available.
Flu Activity Not available.
METAR KSLK 012051Z AUTO 26010G23KT 230V300 10SM FEW022 SCT034 OVC060 19/14 A2968 RMK AO2 LTG DSNT S SLP043 T01890144 55000 $

More Conditions Fewer Conditions

10-Day Weather Forecast

×

Almanac

Astronomy

Jul. 01, 2015 Rise Set
Actual Time
Civil Twilight
Nautical Twilight
Astronomical Twilight
Moon
Length of Visible Light
Length of Day
Tomorrow will be .
, % of the Moon is Illuminated

Today's Extremes

State Highs State Lows

Community

WunderPhotos

Upload Photos

1,834,287 photos uploaded!

WunderBlogs® & News

Nearby

Air Quality

  Air Quality AQ Index Pollutant
Not available.

Snow Depth

Station Depth Elevation

Earthquake Activity

City Distance Mag. Time & Date
Minimum magnitude displayed is 2.5.

Coastal Water Temperatures

Place Temperature

Stations

Nearby Weather Stations

Station Location Temp. Windchill Dew Point Humidity Wind Precip. Elev Updated Type